Miami, Florida
Traffic Map
Current Weather Conditions
Miami, Florida
Few Clouds
Few Clouds
57°
Feels Like: 57°
Wind Chill: 57° Ceiling: Unl
Heat Index: 57° Visibility: 10mi
Dew Point: 45° Wind: 14mph
Humidity: 64% Direction: 340° (NNW)
Pressure: 30.07in Gusts: 18mph
Raw Report DataKMIA 271353Z 34012G16KT 10SM FEW025 FEW250 14/07 A3007 RMK AO2 SLP181 T01390072
Traffic Incident Summary
Active as of:
Severity:
Category:
InformationThere was an issue retrieving the traffic information for this location. Please try a different location or try again shortly.
Advertisements
Track Severe Weather on mobile